createdAt,value
2022-11-05T00:00:37.493Z,9.10
2022-11-05T00:02:18.451Z,9.00
2022-11-05T00:03:59.535Z,9.00
2022-11-05T00:05:40.141Z,9.00
2022-11-05T00:07:53.073Z,9.00
2022-11-05T00:09:30.626Z,9.00
2022-11-05T00:10:52.653Z,9.00
2022-11-05T00:12:33.892Z,9.00
2022-11-05T00:14:14.572Z,9.00
2022-11-05T00:15:55.061Z,8.90
2022-11-05T00:17:17.072Z,8.90
2022-11-05T00:18:39.433Z,8.90
2022-11-05T00:20:01.892Z,8.90
2022-11-05T00:21:42.653Z,8.90
2022-11-05T00:23:24.390Z,8.90
2022-11-05T00:25:04.909Z,8.80
2022-11-05T00:26:26.902Z,8.80
2022-11-05T00:27:50.980Z,8.80
2022-11-05T00:29:13.020Z,8.80
2022-11-05T00:30:35.024Z,8.80
2022-11-05T00:31:57.027Z,8.80
2022-11-05T00:33:19.159Z,8.70
2022-11-05T00:34:41.155Z,8.70
2022-11-05T00:36:04.255Z,8.70
2022-11-05T00:37:29.605Z,8.70
2022-11-05T00:38:51.688Z,8.70
2022-11-05T00:40:15.013Z,8.70
2022-11-05T00:41:36.993Z,8.70
2022-11-05T00:43:17.546Z,8.60
2022-11-05T00:44:59.782Z,8.60
2022-11-05T00:46:21.791Z,8.60
2022-11-05T00:48:02.406Z,8.50
2022-11-05T00:49:30.330Z,8.50
2022-11-05T00:50:52.383Z,8.50
2022-11-05T00:52:32.904Z,8.50
2022-11-05T00:53:54.916Z,8.50
2022-11-05T00:55:17.041Z,8.50
2022-11-05T00:56:39.001Z,8.50
2022-11-05T00:58:02.980Z,8.40
2022-11-05T00:59:25.005Z,8.40
2022-11-05T01:00:52.497Z,8.40
2022-11-05T01:02:14.587Z,8.40
2022-11-05T01:03:38.284Z,8.40
2022-11-05T01:05:00.323Z,8.40
2022-11-05T01:06:22.385Z,8.40
2022-11-05T01:07:44.534Z,8.40
2022-11-05T01:09:06.543Z,8.40
2022-11-05T01:10:29.578Z,8.40
2022-11-05T01:11:51.589Z,8.30
2022-11-05T01:13:16.790Z,8.30
2022-11-05T01:14:38.872Z,8.30
2022-11-05T01:16:11.449Z,8.30
2022-11-05T01:17:33.479Z,8.30
2022-11-05T01:18:55.517Z,8.20
2022-11-05T01:20:17.672Z,8.20
2022-11-05T01:21:39.680Z,8.20
2022-11-05T01:23:01.792Z,8.20
2022-11-05T01:24:23.784Z,8.20
2022-11-05T01:25:45.852Z,8.20
2022-11-05T01:27:07.854Z,8.20
2022-11-05T01:28:30.092Z,8.10
2022-11-05T01:29:52.168Z,8.20
2022-11-05T01:31:14.148Z,8.10
2022-11-05T01:32:36.923Z,8.10
2022-11-05T01:34:01.676Z,8.10
2022-11-05T01:35:23.749Z,8.10
2022-11-05T01:36:45.768Z,8.10
2022-11-05T01:38:07.768Z,8.10
2022-11-05T01:39:29.890Z,8.00
2022-11-05T01:40:51.943Z,8.00
2022-11-05T01:42:22.875Z,8.00
2022-11-05T01:43:47.318Z,8.00
2022-11-05T01:45:12.749Z,8.00
2022-11-05T01:46:40.306Z,8.00
2022-11-05T01:48:11.366Z,7.90
2022-11-05T01:49:34.544Z,7.90
2022-11-05T01:51:06.955Z,7.90
2022-11-05T01:52:31.766Z,7.80
2022-11-05T01:54:21.914Z,7.80
2022-11-05T01:56:12.218Z,7.80
2022-11-05T01:57:34.475Z,7.80
2022-11-05T01:59:01.942Z,7.80
2022-11-05T02:00:23.965Z,7.80
2022-11-05T02:01:46.611Z,7.80
2022-11-05T02:03:09.815Z,7.80
2022-11-05T02:04:41.438Z,7.70
2022-11-05T02:06:04.675Z,7.70
2022-11-05T02:07:28.333Z,7.70
2022-11-05T02:08:58.704Z,7.70
2022-11-05T02:10:22.193Z,7.70
2022-11-05T02:11:44.168Z,7.70
2022-11-05T02:13:06.211Z,7.70
2022-11-05T02:14:28.264Z,7.70
2022-11-05T02:16:14.157Z,7.70
2022-11-05T02:17:48.094Z,7.80
2022-11-05T02:19:28.613Z,7.80
2022-11-05T02:21:27.579Z,7.80
2022-11-05T02:23:24.188Z,7.80
2022-11-05T02:25:02.375Z,7.80
2022-11-05T02:26:53.107Z,7.80
2022-11-05T02:28:49.726Z,7.80
2022-11-05T02:30:23.421Z,7.80
2022-11-05T02:31:57.357Z,7.80
2022-11-05T02:33:42.723Z,7.70
2022-11-05T02:35:26.840Z,7.80
2022-11-05T02:36:58.567Z,7.70
2022-11-05T02:38:41.958Z,7.70
2022-11-05T02:40:28.957Z,7.70
2022-11-05T02:42:12.665Z,7.70
2022-11-05T02:43:34.634Z,7.70
2022-11-05T02:45:33.945Z,7.70
2022-11-05T02:47:05.139Z,7.70
2022-11-05T02:48:57.067Z,7.70
2022-11-05T02:50:39.205Z,7.70
2022-11-05T02:52:21.163Z,7.70
2022-11-05T02:54:01.496Z,7.70
2022-11-05T02:55:37.035Z,7.60
2022-11-05T02:57:00.877Z,7.60
2022-11-05T02:58:22.953Z,7.60
2022-11-05T02:59:45.061Z,7.60
2022-11-05T03:01:09.347Z,7.60
2022-11-05T03:02:32.022Z,7.60
2022-11-05T03:04:00.151Z,7.60
2022-11-05T03:05:30.523Z,7.60
2022-11-05T03:07:22.260Z,7.60
2022-11-05T03:08:53.376Z,7.50
2022-11-05T03:10:59.573Z,7.50
2022-11-05T03:12:32.985Z,7.50
2022-11-05T03:14:37.330Z,7.50
2022-11-05T03:16:30.070Z,7.50
2022-11-05T03:18:14.812Z,7.50
2022-11-05T03:19:50.111Z,7.50
2022-11-05T03:21:17.838Z,7.40
2022-11-05T03:22:47.588Z,7.40
2022-11-05T03:24:18.690Z,7.40
2022-11-05T03:25:55.427Z,7.40
2022-11-05T03:27:23.558Z,7.40
2022-11-05T03:28:51.775Z,7.40
2022-11-05T03:30:16.541Z,7.40
2022-11-05T03:31:40.943Z,7.40
2022-11-05T03:33:08.974Z,7.40
2022-11-05T03:34:38.717Z,7.40
2022-11-05T03:36:13.889Z,7.40
2022-11-05T03:37:39.623Z,7.40
2022-11-05T03:39:05.683Z,7.40
2022-11-05T03:40:32.026Z,7.40
2022-11-05T03:41:56.539Z,7.30
2022-11-05T03:43:22.080Z,7.30
2022-11-05T03:44:52.470Z,7.40
2022-11-05T03:46:40.964Z,7.40
2022-11-05T03:48:05.510Z,7.40
2022-11-05T03:49:35.458Z,7.40
2022-11-05T03:51:12.798Z,7.40
2022-11-05T03:52:59.121Z,7.40
2022-11-05T03:54:22.029Z,7.30
2022-11-05T03:55:53.457Z,7.40
2022-11-05T03:57:26.572Z,7.40
2022-11-05T03:58:49.106Z,7.40
2022-11-05T04:00:11.773Z,7.40
2022-11-05T04:01:36.382Z,7.40
2022-11-05T04:02:58.587Z,7.40
2022-11-05T04:04:20.710Z,7.40
2022-11-05T04:05:43.003Z,7.40
2022-11-05T04:07:23.564Z,7.40
2022-11-05T04:09:04.344Z,7.30
2022-11-05T04:10:45.100Z,7.30
2022-11-05T04:12:27.003Z,7.30
2022-11-05T04:13:49.045Z,7.30
2022-11-05T04:15:11.076Z,7.30
2022-11-05T04:16:51.570Z,7.20
2022-11-05T04:18:13.608Z,7.20
2022-11-05T04:19:55.751Z,7.20
2022-11-05T04:21:36.466Z,7.20
2022-11-05T04:23:19.041Z,7.20
2022-11-05T04:24:41.061Z,7.10
2022-11-05T04:26:03.075Z,7.10
2022-11-05T04:27:25.107Z,7.10
2022-11-05T04:29:07.976Z,7.10
2022-11-05T04:30:30.181Z,7.10
2022-11-05T04:31:52.639Z,7.10
2022-11-05T04:33:16.677Z,7.00
2022-11-05T04:34:38.731Z,7.00
2022-11-05T04:36:00.778Z,7.00
2022-11-05T04:37:22.813Z,7.00
2022-11-05T04:38:44.870Z,7.00
2022-11-05T04:40:07.587Z,7.00
2022-11-05T04:41:29.689Z,7.00
2022-11-05T04:42:54.136Z,7.00
2022-11-05T04:44:16.976Z,7.00
2022-11-05T04:45:39.030Z,7.00
2022-11-05T04:47:01.229Z,7.00
2022-11-05T04:48:23.287Z,7.00
2022-11-05T04:49:45.296Z,6.90
2022-11-05T04:51:07.321Z,6.90
2022-11-05T04:52:29.340Z,6.90
2022-11-05T04:53:51.454Z,6.90
2022-11-05T04:55:13.826Z,6.90
2022-11-05T04:56:35.918Z,6.90
2022-11-05T04:57:57.995Z,6.90
2022-11-05T04:59:20.086Z,6.90
2022-11-05T05:00:42.338Z,6.90
2022-11-05T05:02:04.615Z,6.90
2022-11-05T05:03:26.661Z,6.90
2022-11-05T05:04:48.729Z,6.90
2022-11-05T05:06:11.068Z,6.80
2022-11-05T05:07:34.258Z,6.80
2022-11-05T05:08:56.300Z,6.80
2022-11-05T05:10:18.457Z,6.80
2022-11-05T05:11:41.101Z,6.80
2022-11-05T05:13:03.144Z,6.80
2022-11-05T05:14:25.492Z,6.80
2022-11-05T05:15:47.555Z,6.80
2022-11-05T05:17:10.087Z,6.70
2022-11-05T05:18:32.169Z,6.70
2022-11-05T05:20:12.956Z,6.70
2022-11-05T05:21:41.490Z,6.70
2022-11-05T05:23:04.088Z,6.70
2022-11-05T05:24:26.195Z,6.70
2022-11-05T05:25:48.228Z,6.70
2022-11-05T05:27:10.547Z,6.60
2022-11-05T05:28:32.600Z,6.60
2022-11-05T05:29:55.206Z,6.60
2022-11-05T05:31:17.242Z,6.60
2022-11-05T05:32:39.274Z,6.60
2022-11-05T05:34:01.887Z,6.60
2022-11-05T05:35:23.929Z,6.50
2022-11-05T05:36:45.996Z,6.50
2022-11-05T05:38:08.060Z,6.50
2022-11-05T05:39:30.122Z,6.50
2022-11-05T05:40:52.542Z,6.50
2022-11-05T05:42:14.955Z,6.40
2022-11-05T05:43:37.019Z,6.40
2022-11-05T05:44:59.122Z,6.40
2022-11-05T05:46:21.138Z,6.40
2022-11-05T05:47:43.163Z,6.40
2022-11-05T05:49:11.081Z,6.30
2022-11-05T05:50:34.313Z,6.30
2022-11-05T05:51:56.847Z,6.30
2022-11-05T05:53:18.874Z,6.30
2022-11-05T05:54:42.959Z,6.30
2022-11-05T05:56:06.428Z,6.30
2022-11-05T05:57:28.613Z,6.20
2022-11-05T05:58:50.658Z,6.20
2022-11-05T06:00:13.378Z,6.20
2022-11-05T06:01:35.506Z,6.20
2022-11-05T06:02:57.643Z,6.20
2022-11-05T06:04:19.757Z,6.20
2022-11-05T06:05:41.769Z,6.10
2022-11-05T06:07:03.851Z,6.10
2022-11-05T06:08:25.846Z,6.10
2022-11-05T06:09:47.857Z,6.10
2022-11-05T06:11:11.599Z,6.10
2022-11-05T06:12:33.867Z,6.10
2022-11-05T06:13:55.912Z,6.10
2022-11-05T06:15:17.981Z,6.10
2022-11-05T06:16:40.808Z,6.10
2022-11-05T06:18:02.894Z,6.10
2022-11-05T06:19:24.974Z,6.10
2022-11-05T06:20:46.997Z,6.10
2022-11-05T06:22:09.043Z,6.00
2022-11-05T06:23:32.288Z,6.10
2022-11-05T06:24:54.454Z,6.10
2022-11-05T06:26:18.617Z,6.10
2022-11-05T06:27:40.641Z,6.10
2022-11-05T06:29:02.712Z,6.10
2022-11-05T06:30:24.777Z,6.10
2022-11-05T06:31:46.797Z,6.10
2022-11-05T06:33:09.114Z,6.00
2022-11-05T06:34:31.391Z,6.00
2022-11-05T06:35:54.698Z,6.00
2022-11-05T06:37:16.701Z,6.00
2022-11-05T06:38:39.043Z,6.00
2022-11-05T06:40:01.317Z,6.00
2022-11-05T06:41:23.377Z,6.10
2022-11-05T06:42:45.548Z,6.10
2022-11-05T06:44:07.549Z,6.10
2022-11-05T06:45:29.577Z,6.10
2022-11-05T06:46:51.742Z,6.10
2022-11-05T06:48:13.784Z,6.10
2022-11-05T06:49:35.789Z,6.20
2022-11-05T06:50:57.828Z,6.10
2022-11-05T06:52:20.573Z,6.10
2022-11-05T06:53:42.646Z,6.20
2022-11-05T06:55:05.004Z,6.10
2022-11-05T06:56:27.050Z,6.20
2022-11-05T06:57:49.678Z,6.20
2022-11-05T06:59:11.752Z,6.20
2022-11-05T07:00:33.819Z,6.20
2022-11-05T07:01:56.190Z,6.20
2022-11-05T07:03:18.291Z,6.20
2022-11-05T07:04:40.379Z,6.30
2022-11-05T07:06:04.414Z,6.30
2022-11-05T07:07:26.432Z,6.30
2022-11-05T07:08:48.483Z,6.40
2022-11-05T07:10:16.388Z,6.40
2022-11-05T07:11:38.375Z,6.40
2022-11-05T07:13:08.133Z,6.40
2022-11-05T07:14:30.689Z,6.50
2022-11-05T07:15:52.898Z,6.60
2022-11-05T07:17:17.890Z,6.60
2022-11-05T07:18:40.166Z,6.60
2022-11-05T07:20:02.275Z,6.70
2022-11-05T07:21:24.420Z,6.70
2022-11-05T07:22:46.413Z,6.70
2022-11-05T07:24:08.931Z,6.80
2022-11-05T07:25:32.590Z,6.80
2022-11-05T07:26:56.666Z,6.90
2022-11-05T07:28:18.813Z,6.90
2022-11-05T07:29:40.820Z,7.00
2022-11-05T07:31:02.931Z,7.00
2022-11-05T07:32:24.937Z,7.00
2022-11-05T07:33:46.998Z,7.10
2022-11-05T07:35:09.839Z,7.10
2022-11-05T07:36:31.892Z,7.20
2022-11-05T07:37:54.826Z,7.20
2022-11-05T07:39:17.042Z,7.30
2022-11-05T07:40:39.356Z,7.30
2022-11-05T07:42:01.385Z,7.30
2022-11-05T07:43:23.341Z,7.30
2022-11-05T07:44:45.333Z,7.30
2022-11-05T07:46:12.657Z,7.40
2022-11-05T07:47:44.975Z,7.40
2022-11-05T07:49:07.068Z,7.50
2022-11-05T07:50:32.795Z,7.60
2022-11-05T07:51:54.801Z,7.60
2022-11-05T07:53:16.831Z,7.60
2022-11-05T07:54:38.880Z,7.70
2022-11-05T07:56:00.908Z,7.70
2022-11-05T07:57:22.967Z,7.80
2022-11-05T07:58:45.085Z,7.80
2022-11-05T08:00:07.957Z,7.80
2022-11-05T08:01:30.080Z,7.90
2022-11-05T08:03:08.534Z,7.90
2022-11-05T08:04:30.803Z,8.00
2022-11-05T08:05:52.841Z,8.10
2022-11-05T08:07:14.844Z,8.10
2022-11-05T08:08:36.902Z,8.20
2022-11-05T08:09:58.961Z,8.20
2022-11-05T08:11:20.988Z,8.30
2022-11-05T08:12:42.999Z,8.40
2022-11-05T08:14:05.028Z,8.40
2022-11-05T08:15:27.053Z,8.50
2022-11-05T08:16:49.059Z,8.50
2022-11-05T08:18:13.304Z,8.50
2022-11-05T08:19:35.329Z,8.60
2022-11-05T08:21:03.374Z,8.60
2022-11-05T08:22:25.393Z,8.60
2022-11-05T08:23:47.534Z,8.70
2022-11-05T08:25:10.022Z,8.70
2022-11-05T08:26:32.062Z,8.70
2022-11-05T08:27:57.788Z,8.80
2022-11-05T08:29:19.805Z,8.90
2022-11-05T08:30:41.897Z,8.90
2022-11-05T08:32:03.920Z,9.00
2022-11-05T08:33:26.387Z,9.10
2022-11-05T08:34:48.407Z,9.20
2022-11-05T08:36:10.421Z,9.20
2022-11-05T08:37:32.839Z,9.30
2022-11-05T08:38:55.153Z,9.40
2022-11-05T08:40:17.202Z,9.40
2022-11-05T08:41:40.443Z,9.40
2022-11-05T08:43:04.366Z,9.50
2022-11-05T08:44:26.469Z,9.60
2022-11-05T08:45:48.505Z,9.60
2022-11-05T08:47:10.542Z,9.60
2022-11-05T08:48:32.542Z,9.70
2022-11-05T08:49:54.612Z,9.70
2022-11-05T08:51:16.745Z,9.80
2022-11-05T08:52:40.618Z,9.80
2022-11-05T08:54:02.638Z,9.90
2022-11-05T08:55:25.205Z,9.90
2022-11-05T08:56:47.274Z,10.00
2022-11-05T08:58:18.083Z,10.00
2022-11-05T08:59:40.071Z,10.00
2022-11-05T09:01:05.458Z,10.10
2022-11-05T09:02:27.845Z,10.10
2022-11-05T09:03:51.761Z,10.20
2022-11-05T09:05:13.772Z,10.20
2022-11-05T09:06:35.801Z,10.30
2022-11-05T09:08:01.325Z,10.30
2022-11-05T09:09:23.643Z,10.40
2022-11-05T09:10:47.743Z,10.40
2022-11-05T09:12:12.685Z,10.40
2022-11-05T09:13:35.558Z,10.50
2022-11-05T09:14:57.675Z,10.50
2022-11-05T09:16:25.205Z,10.60
2022-11-05T09:17:47.212Z,10.70
2022-11-05T09:19:09.299Z,10.80
2022-11-05T09:20:32.045Z,10.80
2022-11-05T09:21:54.151Z,10.80
2022-11-05T09:23:16.912Z,10.80
2022-11-05T09:24:43.194Z,10.90
2022-11-05T09:26:05.672Z,11.10
2022-11-05T09:27:28.052Z,11.50
2022-11-05T09:28:50.083Z,11.70
2022-11-05T09:30:13.535Z,12.00
2022-11-05T09:31:35.772Z,12.20
2022-11-05T09:32:57.927Z,12.30
2022-11-05T09:34:19.978Z,12.50
2022-11-05T09:35:42.847Z,12.70
2022-11-05T09:37:04.961Z,13.00
2022-11-05T09:38:27.439Z,13.20
2022-11-05T09:39:49.606Z,13.40
2022-11-05T09:41:26.567Z,13.60
2022-11-05T09:42:52.401Z,13.70
2022-11-05T09:44:36.218Z,13.60
2022-11-05T09:46:02.924Z,13.30
2022-11-05T09:47:32.862Z,13.10
2022-11-05T09:49:03.319Z,12.80
2022-11-05T09:50:39.225Z,12.70
2022-11-05T09:52:02.125Z,12.60
2022-11-05T09:53:25.397Z,12.50
2022-11-05T09:54:48.886Z,12.40
2022-11-05T09:56:33.088Z,12.40
2022-11-05T09:58:02.573Z,12.40
2022-11-05T09:59:27.796Z,12.40
2022-11-05T10:00:52.763Z,12.40
2022-11-05T10:02:46.816Z,12.30
2022-11-05T10:04:16.226Z,12.30
2022-11-05T10:05:40.226Z,12.30
2022-11-05T10:07:05.805Z,12.30
2022-11-05T10:08:32.659Z,12.40
2022-11-05T10:10:07.811Z,12.40
2022-11-05T10:11:45.377Z,12.60
2022-11-05T10:13:36.338Z,12.80
2022-11-05T10:15:12.288Z,13.10
2022-11-05T10:16:42.139Z,13.10
2022-11-05T10:18:23.283Z,13.20
2022-11-05T10:19:50.675Z,13.10
2022-11-05T10:21:27.779Z,13.10
2022-11-05T10:23:17.262Z,13.00
2022-11-05T10:24:43.631Z,12.90
2022-11-05T10:26:10.430Z,12.80
2022-11-05T10:27:36.681Z,12.80
2022-11-05T10:28:58.741Z,12.90
2022-11-05T10:30:21.588Z,12.90
2022-11-05T10:31:43.852Z,13.00
2022-11-05T10:33:07.954Z,13.20
2022-11-05T10:34:34.427Z,13.50
2022-11-05T10:36:02.610Z,14.00
2022-11-05T10:37:25.277Z,14.50
2022-11-05T10:38:47.658Z,14.80
2022-11-05T10:40:27.330Z,14.80
2022-11-05T10:42:09.820Z,14.70
2022-11-05T10:43:42.272Z,14.60
2022-11-05T10:45:41.082Z,14.40
2022-11-05T10:47:29.362Z,14.20
2022-11-05T10:49:06.609Z,13.90
2022-11-05T10:50:30.065Z,13.80
2022-11-05T10:51:58.089Z,13.70
2022-11-05T10:53:33.969Z,13.60
2022-11-05T10:54:59.853Z,13.60
2022-11-05T10:56:32.389Z,13.60
2022-11-05T10:57:54.915Z,13.50
2022-11-05T10:59:23.743Z,13.50
2022-11-05T11:01:08.220Z,13.50
2022-11-05T11:02:30.754Z,13.60
2022-11-05T11:04:05.775Z,13.90
2022-11-05T11:05:32.253Z,14.30
2022-11-05T11:06:56.965Z,14.80
2022-11-05T11:08:23.813Z,15.10
2022-11-05T11:09:49.045Z,15.30
2022-11-05T11:11:24.999Z,15.30
2022-11-05T11:12:49.643Z,15.20
2022-11-05T11:14:11.672Z,15.00
2022-11-05T11:15:35.082Z,14.90
2022-11-05T11:17:26.876Z,15.00
2022-11-05T11:18:58.419Z,15.40
2022-11-05T11:20:25.165Z,15.60
2022-11-05T11:22:07.682Z,15.70
2022-11-05T11:23:37.534Z,15.70
2022-11-05T11:24:59.582Z,15.80
2022-11-05T11:26:23.217Z,15.90
2022-11-05T11:27:45.396Z,16.00
2022-11-05T11:29:25.463Z,16.20
2022-11-05T11:31:01.386Z,16.60
2022-11-05T11:32:27.747Z,16.70
2022-11-05T11:34:06.701Z,16.60
2022-11-05T11:35:29.325Z,16.20
2022-11-05T11:36:56.144Z,15.90
2022-11-05T11:38:18.432Z,15.50
2022-11-05T11:39:43.298Z,15.10
2022-11-05T11:41:25.563Z,14.90
2022-11-05T11:42:55.621Z,14.60
2022-11-05T11:44:24.578Z,14.60
2022-11-05T11:45:53.826Z,14.50
2022-11-05T11:47:19.457Z,14.40
2022-11-05T11:48:45.691Z,14.30
2022-11-05T11:50:43.759Z,14.20
2022-11-05T11:52:15.365Z,14.10
2022-11-05T11:53:37.481Z,14.10
2022-11-05T11:55:12.314Z,14.10
2022-11-05T11:56:45.896Z,14.10
2022-11-05T11:58:10.383Z,14.20
2022-11-05T12:00:06.437Z,14.20
2022-11-05T12:01:33.252Z,14.30
2022-11-05T12:03:33.061Z,14.30
2022-11-05T12:05:03.932Z,14.50
2022-11-05T12:06:44.138Z,14.80
2022-11-05T12:08:45.508Z,15.10
2022-11-05T12:10:19.015Z,15.40
2022-11-05T12:12:22.530Z,15.90
2022-11-05T12:13:51.845Z,16.10
2022-11-05T12:15:39.419Z,16.30
2022-11-05T12:17:17.713Z,16.30
2022-11-05T12:18:47.312Z,16.40
2022-11-05T12:20:33.119Z,16.50
2022-11-05T12:22:16.296Z,16.70
2022-11-05T12:24:10.361Z,16.90
2022-11-05T12:26:04.383Z,17.10
2022-11-05T12:27:46.177Z,17.20
2022-11-05T12:29:25.579Z,17.10
2022-11-05T12:31:05.327Z,16.80
2022-11-05T12:33:21.370Z,16.60
2022-11-05T12:35:18.987Z,16.30
2022-11-05T12:37:12.922Z,16.10
2022-11-05T12:39:04.358Z,15.90
2022-11-05T12:40:32.098Z,15.80
2022-11-05T12:42:05.538Z,15.60
2022-11-05T12:43:32.014Z,15.50
2022-11-05T12:45:20.539Z,15.50
2022-11-05T12:47:01.061Z,15.30
2022-11-05T12:48:38.654Z,15.10
2022-11-05T12:50:25.312Z,14.90
2022-11-05T12:51:56.529Z,14.90
2022-11-05T12:53:27.809Z,14.80
2022-11-05T12:55:04.323Z,14.80
2022-11-05T12:56:47.313Z,14.70
2022-11-05T12:58:18.603Z,14.70
2022-11-05T12:59:56.362Z,14.60
2022-11-05T13:01:25.526Z,14.60
2022-11-05T13:03:22.498Z,14.50
2022-11-05T13:04:53.234Z,14.50
2022-11-05T13:06:31.751Z,14.40
2022-11-05T13:07:56.971Z,14.30
2022-11-05T13:09:49.336Z,14.30
2022-11-05T13:11:14.178Z,14.40
2022-11-05T13:12:41.176Z,14.40
2022-11-05T13:14:11.516Z,14.40
2022-11-05T13:15:39.874Z,14.40
2022-11-05T13:17:17.640Z,14.30
2022-11-05T13:18:51.151Z,14.20
2022-11-05T13:20:24.392Z,14.10
2022-11-05T13:21:56.597Z,14.00
2022-11-05T13:23:36.863Z,14.00
2022-11-05T13:25:04.778Z,14.00
2022-11-05T13:26:39.877Z,13.90
2022-11-05T13:28:25.605Z,13.90
2022-11-05T13:29:55.594Z,13.90
2022-11-05T13:31:21.606Z,13.90
2022-11-05T13:32:48.258Z,14.00
2022-11-05T13:34:12.407Z,13.90
2022-11-05T13:35:43.209Z,13.90
2022-11-05T13:37:26.438Z,13.90
2022-11-05T13:38:59.182Z,13.90
2022-11-05T13:40:29.750Z,13.90
2022-11-05T13:42:09.490Z,13.90
2022-11-05T13:43:54.626Z,13.90
2022-11-05T13:45:28.878Z,13.90
2022-11-05T13:47:29.641Z,13.90
2022-11-05T13:49:10.048Z,13.80
2022-11-05T13:50:59.290Z,13.80
2022-11-05T13:52:36.430Z,13.70
2022-11-05T13:54:10.273Z,13.70
2022-11-05T13:56:04.822Z,13.70
2022-11-05T13:57:38.169Z,13.60
2022-11-05T13:59:19.121Z,13.50
2022-11-05T14:01:03.123Z,13.50
2022-11-05T14:02:29.311Z,13.40
2022-11-05T14:03:55.295Z,13.40
2022-11-05T14:05:48.985Z,13.40
2022-11-05T14:07:18.428Z,13.40
2022-11-05T14:08:45.252Z,13.30
2022-11-05T14:10:34.958Z,13.30
2022-11-05T14:11:58.259Z,13.30
2022-11-05T14:13:25.298Z,13.30
2022-11-05T14:14:59.153Z,13.20
2022-11-05T14:16:26.970Z,13.20
2022-11-05T14:18:26.970Z,13.10
2022-11-05T14:20:23.774Z,13.10
2022-11-05T14:21:56.129Z,13.00
2022-11-05T14:23:22.368Z,13.00
2022-11-05T14:24:45.740Z,12.90
2022-11-05T14:26:18.081Z,12.90
2022-11-05T14:27:40.101Z,12.80
2022-11-05T14:29:04.600Z,12.80
2022-11-05T14:30:46.016Z,12.70
2022-11-05T14:32:43.065Z,12.70
2022-11-05T14:34:10.941Z,12.70
2022-11-05T14:35:38.016Z,12.60
2022-11-05T14:37:27.466Z,12.60
2022-11-05T14:38:52.035Z,12.50
2022-11-05T14:40:32.756Z,12.50
2022-11-05T14:41:54.742Z,12.40
2022-11-05T14:43:23.919Z,12.40
2022-11-05T14:45:23.207Z,12.30
2022-11-05T14:46:48.974Z,12.20
2022-11-05T14:48:30.796Z,12.20
2022-11-05T14:50:00.893Z,12.10
2022-11-05T14:51:31.172Z,12.00
2022-11-05T14:52:55.611Z,11.90
2022-11-05T14:54:45.030Z,11.90
2022-11-05T14:56:16.296Z,11.80
2022-11-05T14:57:44.038Z,11.80
2022-11-05T14:59:23.982Z,11.70
2022-11-05T15:00:47.835Z,11.60
2022-11-05T15:02:20.137Z,11.60
2022-11-05T15:03:46.443Z,11.50
2022-11-05T15:05:36.860Z,11.40
2022-11-05T15:07:02.019Z,11.40
2022-11-05T15:08:27.008Z,11.30
2022-11-05T15:09:54.985Z,11.30
2022-11-05T15:11:30.235Z,11.20
2022-11-05T15:12:56.625Z,11.20
2022-11-05T15:14:21.750Z,11.10
2022-11-05T15:15:47.136Z,11.10
2022-11-05T15:17:21.513Z,11.10
2022-11-05T15:18:45.745Z,10.90
2022-11-05T15:20:08.544Z,10.90
2022-11-05T15:21:36.247Z,10.80
2022-11-05T15:23:05.260Z,10.80
2022-11-05T15:24:28.261Z,10.70
2022-11-05T15:26:05.647Z,10.60
2022-11-05T15:27:33.910Z,10.60
2022-11-05T15:28:56.667Z,10.50
2022-11-05T15:30:21.597Z,10.50
2022-11-05T15:31:45.361Z,10.40
2022-11-05T15:33:20.411Z,10.40
2022-11-05T15:34:51.876Z,10.30
2022-11-05T15:36:25.844Z,10.30
2022-11-05T15:37:54.605Z,10.20
2022-11-05T15:39:29.937Z,10.20
2022-11-05T15:41:00.892Z,10.20
2022-11-05T15:42:25.399Z,10.10
2022-11-05T15:43:49.058Z,10.10
2022-11-05T15:45:20.750Z,10.00
2022-11-05T15:46:42.773Z,10.00
2022-11-05T15:48:13.431Z,10.00
2022-11-05T15:49:35.612Z,10.00
2022-11-05T15:50:58.182Z,10.00
2022-11-05T15:52:23.408Z,9.90
2022-11-05T15:54:02.239Z,9.90
2022-11-05T15:55:27.544Z,9.90
2022-11-05T15:56:59.671Z,9.80
2022-11-05T15:58:21.805Z,9.80
2022-11-05T15:59:47.133Z,9.80
2022-11-05T16:01:33.310Z,9.80
2022-11-05T16:03:06.243Z,9.70
2022-11-05T16:04:32.053Z,9.70
2022-11-05T16:05:54.549Z,9.70
2022-11-05T16:07:17.603Z,9.70
2022-11-05T16:08:45.769Z,9.70
2022-11-05T16:10:23.310Z,9.60
2022-11-05T16:11:45.353Z,9.60
2022-11-05T16:13:36.773Z,9.50
2022-11-05T16:15:18.328Z,9.50
2022-11-05T16:16:40.380Z,9.50
2022-11-05T16:18:02.390Z,9.40
2022-11-05T16:19:45.389Z,9.40
2022-11-05T16:21:18.221Z,9.40
2022-11-05T16:22:48.663Z,9.40
2022-11-05T16:24:29.052Z,9.30
2022-11-05T16:25:51.722Z,9.30
2022-11-05T16:27:22.882Z,9.30
2022-11-05T16:28:50.531Z,9.20
2022-11-05T16:30:19.886Z,9.20
2022-11-05T16:31:48.535Z,9.20
2022-11-05T16:33:13.997Z,9.20
2022-11-05T16:34:39.148Z,9.20
2022-11-05T16:36:01.274Z,9.20
2022-11-05T16:37:25.695Z,9.10
2022-11-05T16:38:48.032Z,9.10
2022-11-05T16:40:18.022Z,9.10
2022-11-05T16:41:43.660Z,9.10
2022-11-05T16:43:20.603Z,9.10
2022-11-05T16:44:42.708Z,9.10
2022-11-05T16:46:04.982Z,9.10
2022-11-05T16:47:27.039Z,9.00
2022-11-05T16:48:49.267Z,9.00
2022-11-05T16:50:25.839Z,9.00
2022-11-05T16:51:47.898Z,9.00
2022-11-05T16:53:10.243Z,9.00
2022-11-05T16:54:32.358Z,9.00
2022-11-05T16:55:54.372Z,9.00
2022-11-05T16:57:31.015Z,8.90
2022-11-05T16:58:53.179Z,8.90
2022-11-05T17:00:17.553Z,9.00
2022-11-05T17:01:42.033Z,8.90
2022-11-05T17:03:04.263Z,8.90
2022-11-05T17:04:26.305Z,8.90
2022-11-05T17:05:48.416Z,8.90
2022-11-05T17:07:10.426Z,8.90
2022-11-05T17:08:32.427Z,8.90
2022-11-05T17:09:55.997Z,8.90
2022-11-05T17:11:20.223Z,8.90
2022-11-05T17:12:43.309Z,8.90
2022-11-05T17:14:05.458Z,8.90
2022-11-05T17:15:31.087Z,8.90
2022-11-05T17:16:53.179Z,8.90
2022-11-05T17:18:18.911Z,8.80
2022-11-05T17:19:42.584Z,8.90
2022-11-05T17:21:04.906Z,8.80
2022-11-05T17:22:26.942Z,8.80
2022-11-05T17:23:48.996Z,8.80
2022-11-05T17:25:11.013Z,8.80
2022-11-05T17:26:34.691Z,8.80
2022-11-05T17:27:57.459Z,8.80
2022-11-05T17:29:19.543Z,8.80
2022-11-05T17:30:42.314Z,8.80
2022-11-05T17:32:05.952Z,8.80
2022-11-05T17:33:28.275Z,8.80
2022-11-05T17:34:50.310Z,8.80
2022-11-05T17:36:14.718Z,8.80
2022-11-05T17:37:36.845Z,8.80
2022-11-05T17:38:59.011Z,8.80
2022-11-05T17:40:25.251Z,8.80
2022-11-05T17:41:47.909Z,8.80
2022-11-05T17:43:10.557Z,8.80
2022-11-05T17:44:32.932Z,8.80
2022-11-05T17:45:58.655Z,8.80
2022-11-05T17:47:24.000Z,8.80
2022-11-05T17:48:46.435Z,8.80
2022-11-05T17:50:11.396Z,8.80
2022-11-05T17:51:34.592Z,8.80
2022-11-05T17:52:56.925Z,8.80
2022-11-05T17:54:19.039Z,8.80
2022-11-05T17:55:42.751Z,8.80
2022-11-05T17:57:05.422Z,8.80
2022-11-05T17:58:27.482Z,8.80
2022-11-05T17:59:49.554Z,8.70
2022-11-05T18:01:28.961Z,8.70
2022-11-05T18:02:53.394Z,8.70
2022-11-05T18:04:15.546Z,8.70
2022-11-05T18:05:38.503Z,8.70
2022-11-05T18:07:00.604Z,8.60
2022-11-05T18:08:23.000Z,8.60
2022-11-05T18:09:45.120Z,8.60
2022-11-05T18:11:07.164Z,8.60
2022-11-05T18:12:29.222Z,8.60
2022-11-05T18:13:51.236Z,8.50
2022-11-05T18:15:14.295Z,8.50
2022-11-05T18:16:36.764Z,8.50
2022-11-05T18:17:58.857Z,8.50
2022-11-05T18:19:21.349Z,8.50
2022-11-05T18:20:43.664Z,8.50
2022-11-05T18:22:06.146Z,8.50
2022-11-05T18:23:28.327Z,8.40
2022-11-05T18:24:50.438Z,8.40
2022-11-05T18:26:14.919Z,8.40
2022-11-05T18:27:37.318Z,8.40
2022-11-05T18:29:04.447Z,8.40
2022-11-05T18:30:26.557Z,8.40
2022-11-05T18:31:48.700Z,8.40
2022-11-05T18:33:11.106Z,8.40
2022-11-05T18:34:33.430Z,8.50
2022-11-05T18:35:55.648Z,8.50
2022-11-05T18:37:17.912Z,8.50
2022-11-05T18:38:39.927Z,8.50
2022-11-05T18:40:01.988Z,8.50
2022-11-05T18:41:24.444Z,8.50
2022-11-05T18:42:46.531Z,8.50
2022-11-05T18:44:09.692Z,8.50
2022-11-05T18:45:33.351Z,8.50
2022-11-05T18:46:58.443Z,8.50
2022-11-05T18:48:20.838Z,8.50
2022-11-05T18:49:42.949Z,8.50
2022-11-05T18:51:15.458Z,8.50
2022-11-05T18:52:37.801Z,8.50
2022-11-05T18:54:00.632Z,8.40
2022-11-05T18:55:23.602Z,8.40
2022-11-05T18:56:46.081Z,8.40
2022-11-05T18:58:08.837Z,8.50
2022-11-05T18:59:37.731Z,8.50
2022-11-05T19:01:05.514Z,8.50
2022-11-05T19:02:28.758Z,8.50
2022-11-05T19:03:54.345Z,8.50
2022-11-05T19:05:32.198Z,8.50
2022-11-05T19:06:54.379Z,8.50
2022-11-05T19:08:16.510Z,8.50
2022-11-05T19:09:39.448Z,8.50
2022-11-05T19:11:10.167Z,8.50
2022-11-05T19:12:32.250Z,8.50
2022-11-05T19:13:54.728Z,8.50
2022-11-05T19:15:17.119Z,8.60
2022-11-05T19:16:39.174Z,8.60
2022-11-05T19:18:01.222Z,8.60
2022-11-05T19:19:23.405Z,8.60
2022-11-05T19:20:45.446Z,8.60
2022-11-05T19:22:07.568Z,8.60
2022-11-05T19:23:30.863Z,8.60